EDT,Max TemperatureF,Mean TemperatureF,Min TemperatureF,Max Dew PointF,MeanDew PointF,Min DewpointF,Max Humidity, Mean Humidity, Min Humidity, Max Sea Level PressureIn, Mean Sea Level PressureIn, Min Sea Level PressureIn, Max VisibilityMiles, Mean VisibilityMiles, Min VisibilityMiles, Max Wind SpeedMPH, Mean Wind SpeedMPH, Max Gust SpeedMPH,PrecipitationIn, CloudCover, Events, WindDirDegrees
2013-5-1,80,67,54,59,55,51,89,62,42,30.19,30.13,30.02,10,10,10,15,5,22,0.00,0,,169
2013-5-2,78,66,53,60,55,52,94,63,42,30.21,30.15,30.09,10,10,10,14,5,20,0.00,1,,138
2013-5-3,76,64,53,59,52,43,93,62,37,30.10,30.03,29.98,10,10,10,16,6,25,0.00,2,,121
2013-5-4,72,65,58,48,44,39,61,49,33,30.07,30.04,30.00,10,10,10,18,8,25,0.00,0,,111
2013-5-5,72,60,48,48,43,36,78,53,35,30.06,30.03,29.99,10,10,10,15,6,24,0.00,0,,88
2013-5-6,75,62,49,50,43,37,73,51,30,30.04,30.00,29.95,10,10,3,9,4,,0.00,1,,75
2013-5-7,75,61,47,53,50,45,96,63,41,30.06,30.02,29.98,10,10,10,12,2,17,0.00,4,,84
2013-5-8,78,64,49,56,52,48,98,68,39,30.04,30.01,29.97,10,10,5,13,2,18,0.00,2,,314
2013-5-9,78,63,48,59,51,45,100,67,30,30.00,29.96,29.91,10,10,5,12,1,17,0.00,2,Rain,232
2013-5-10,65,55,45,60,54,44,100,92,74,29.92,29.83,29.77,10,7,2,14,6,22,0.00,8,Rain,297
2013-5-11,52,44,35,49,42,33,96,85,60,29.97,29.90,29.82,10,9,2,22,6,32,0.00,6,Rain,294
2013-5-12,46,39,32,35,31,28,93,71,52,30.11,30.04,29.96,10,10,10,20,9,26,0.00,4,,296
2013-5-13,55,42,28,35,29,23,99,61,30,30.19,30.14,30.08,10,10,7,15,2,23,0.00,2,,300
2013-5-14,80,63,46,57,44,27,74,50,41,30.08,29.86,29.70,10,10,5,21,6,28,0.00,3,,207
2013-5-15,76,66,56,61,53,48,73,52,40,29.84,29.76,29.63,10,10,7,18,11,25,0.00,0,,277
2013-5-16,81,64,47,52,48,45,94,58,29,30.00,29.91,29.83,10,10,10,15,2,21,0.00,0,,312
2013-5-17,79,66,52,51,46,42,84,51,36,30.11,30.06,30.00,10,10,10,14,5,17,0.00,3,,101
2013-5-18,79,64,50,60,51,42,77,59,48,30.12,30.07,30.00,10,10,10,13,4,17,0.00,4,,124
2013-5-19,84,68,52,63,57,49,90,65,46,30.03,29.95,29.85,10,10,10,10,3,16,0.00,1,,152
2013-5-20,86,77,68,70,66,61,88,72,51,29.90,29.85,29.79,10,9,3,22,8,30,0.00,3,Rain,184
2013-5-21,79,70,62,67,64,61,99,79,60,29.83,29.77,29.72,10,10,4,18,8,28,0.00,3,Rain,208
2013-5-22,75,68,60,68,63,58,98,90,66,29.75,29.71,29.67,10,9,3,24,7,31,0.00,6,Rain,208
2013-5-23,61,54,48,61,52,42,97,91,79,30.19,29.91,29.73,10,8,3,13,6,25,0.00,7,Rain,310
2013-5-24,59,48,37,45,40,36,93,73,52,30.38,30.31,30.20,10,10,10,13,6,16,0.00,1,,330
2013-5-25,64,50,37,46,41,36,99,67,43,30.39,30.33,30.27,10,10,5,7,1,,0.00,0,,26
2013-5-26,67,54,42,44,41,35,93,58,37,30.34,30.28,30.20,10,10,10,9,3,,0.00,0,,116
2013-5-27,61,56,50,54,47,35,98,78,38,30.22,30.10,29.95,10,8,2,14,8,21,0.00,8,Rain,117
2013-5-28,77,66,54,71,64,54,100,89,71,29.95,29.87,29.81,10,8,1,21,8,33,0.00,7,Rain,198
2013-5-29,79,70,62,71,65,62,97,83,63,30.01,29.94,29.83,10,10,5,15,7,28,0.00,3,Rain,227
2013-5-30,82,74,65,70,66,63,89,76,61,30.04,29.99,29.93,10,10,10,22,7,29,0.00,2,Rain,187
2013-5-31,74,70,66,68,66,63,93,84,77,29.97,29.91,29.83,10,10,4,18,11,28,0.00,4,Rain,189